フォークランド諸島 の空港の天気 - METARとTAF

マウント・プレザント空軍基地 ( EGYP / MPN ) - フォークランド諸島 フォークランド諸島
飛行場実況気象(Metar)
観測時間09/25 00:50 FKST (09/25 03:50 UTC)
風向・風速西 7m/s
視程10km以上
天気現象
少しの雲 雲底高度 760m
気温0℃
湿度100%
気圧1009hPa
METAREGYP 250350Z 26013KT 9999 FEW025 00/M00 Q1009 BLU
過去の天気等 Google飛行場航空写真 Wunderground天気予報

過去48時間のMETAR

飛行場予報(TAF)
発表時間: 9/24 22:22 FKST (9/25 01:22 UTC)
予報対象時間: 25日0時 FKST ~ 25日18時 FKST
風向・風速西南西 7m/s
視程10km以上
全天の4割程度の雲 雲底高度 760m
25日0時 FKST ~ 25日18時 FKST に一時的に
視程3000m
天気現象弱いしゅう雨雪
全天の8割程度の雲 雲底高度 180m
全天の4割程度の積乱雲 雲底高度 460m
25日0時 FKST ~ 25日18時 FKST に 確率 30% で一時的に
視程500m
天気現象しゅう雪
全天の8割程度の雲 雲底高度 60m
25日6時 FKST ~ 25日9時 FKST に徐々に
風向・風速西 8m/s 瞬間風速 13m/s
25日9時 FKST ~ 25日12時 FKST に徐々に
風向・風速南西 8m/s 瞬間風速 13m/s
TAF EGYP 250122Z 2503/2521 25014KT 9999 SCT025
TEMPO 2503/2521 3000 -SHRASN BKN006 SCT015CB
PROB30 TEMPO 2503/2521 0500 SHSN BKN002
BECMG 2509/2512 26015G25KT
BECMG 2512/2515 22015G25KT